createdAt,value
2022-12-03T16:49:08.298Z,22.58
2022-12-03T16:51:35.251Z,24.23
2022-12-03T16:54:01.955Z,22.73
2022-12-03T16:56:28.675Z,22.08
2022-12-03T16:58:55.504Z,22.17
2022-12-03T17:01:23.423Z,22.65
2022-12-03T17:03:50.469Z,24.13
2022-12-03T17:06:17.300Z,23.30
2022-12-03T17:08:48.987Z,21.30
2022-12-03T17:11:16.785Z,23.23
2022-12-03T17:13:43.525Z,44.05
2022-12-03T17:16:10.343Z,64.68
2022-12-03T17:18:37.097Z,42.90
2022-12-03T17:21:03.987Z,23.67
2022-12-03T17:23:30.724Z,25.60
2022-12-03T17:25:57.453Z,38.78
2022-12-03T17:28:24.274Z,45.63
2022-12-03T17:30:51.134Z,30.08
2022-12-03T17:33:17.936Z,27.73
2022-12-03T17:35:45.850Z,25.65
2022-12-03T17:38:12.631Z,24.33
2022-12-03T17:40:39.439Z,26.90
2022-12-03T17:43:06.690Z,25.73
2022-12-03T17:45:33.742Z,53.47
2022-12-03T17:48:00.708Z,32.33
2022-12-03T17:50:27.555Z,29.08
2022-12-03T17:52:54.372Z,25.38
2022-12-03T17:55:29.720Z,26.52
2022-12-03T17:58:00.448Z,24.20
2022-12-03T18:00:27.666Z,22.60
2022-12-03T18:05:22.923Z,20.60
2022-12-03T18:07:50.633Z,22.75
2022-12-03T18:10:17.590Z,23.70
2022-12-03T18:12:44.332Z,23.13
2022-12-03T18:15:11.258Z,23.15
2022-12-03T18:17:38.075Z,22.20
2022-12-03T18:20:05.555Z,23.10
2022-12-03T18:22:32.587Z,22.35
2022-12-03T18:24:59.601Z,22.25
2022-12-03T18:29:53.330Z,20.95
2022-12-03T18:32:28.837Z,21.88
2022-12-03T18:34:57.305Z,23.90
2022-12-03T18:37:26.903Z,23.45
2022-12-03T18:39:54.109Z,21.50
2022-12-03T18:42:23.501Z,22.10
2022-12-03T18:44:52.082Z,19.92
2022-12-03T18:47:22.565Z,22.17
2022-12-03T18:49:49.867Z,21.75
2022-12-03T18:54:45.595Z,20.52
2022-12-03T18:59:39.524Z,19.85
2022-12-03T19:04:33.967Z,18.75
2022-12-03T19:07:00.744Z,21.23
2022-12-03T19:09:27.513Z,19.40
2022-12-03T19:11:54.267Z,20.73
2022-12-03T19:14:21.014Z,26.20
2022-12-03T19:16:49.823Z,23.77
2022-12-03T19:19:16.845Z,21.52
2022-12-03T19:21:43.511Z,21.40
2022-12-03T19:24:25.917Z,19.50
2022-12-03T19:26:55.451Z,20.30
2022-12-03T19:29:23.357Z,22.10
2022-12-03T19:31:53.145Z,20.30
2022-12-03T19:34:20.803Z,22.63
2022-12-03T19:36:50.558Z,18.45
2022-12-03T19:39:17.322Z,19.67
2022-12-03T19:41:44.622Z,20.63
2022-12-03T19:44:13.981Z,21.13
2022-12-03T19:46:41.385Z,18.48
2022-12-03T19:49:08.598Z,18.23
2022-12-03T19:54:07.874Z,18.70
2022-12-03T19:56:35.027Z,18.98
2022-12-03T19:59:02.192Z,19.05
2022-12-03T20:03:59.657Z,17.90
2022-12-03T20:06:30.898Z,17.85
2022-12-03T20:09:18.283Z,18.33
2022-12-03T20:11:45.816Z,16.80
2022-12-03T20:14:15.148Z,16.55
2022-12-03T20:16:42.217Z,19.33
2022-12-03T20:19:12.680Z,17.70
2022-12-03T20:21:39.957Z,17.60
2022-12-03T20:24:07.886Z,16.58
2022-12-03T20:26:35.697Z,17.60
2022-12-03T20:29:02.659Z,17.77
2022-12-03T20:31:31.851Z,18.02
2022-12-03T20:34:01.183Z,17.40
2022-12-03T20:36:29.671Z,17.10
2022-12-03T20:38:58.858Z,17.60
2022-12-03T20:41:26.429Z,14.55
2022-12-03T20:43:53.942Z,15.95
2022-12-03T20:46:24.234Z,16.88
2022-12-03T20:48:53.912Z,15.45
2022-12-03T20:51:23.995Z,16.08
2022-12-03T20:53:51.619Z,16.77
2022-12-03T20:56:22.880Z,16.73
2022-12-03T20:58:50.539Z,16.45
2022-12-03T21:01:24.873Z,16.15
2022-12-03T21:03:53.866Z,17.00
2022-12-03T21:06:22.383Z,17.38
2022-12-03T21:08:49.772Z,18.42
2022-12-03T21:11:19.804Z,16.73
2022-12-03T21:13:47.821Z,16.40
2022-12-03T21:16:18.101Z,17.40
2022-12-03T21:18:45.662Z,17.85
2022-12-03T21:21:13.857Z,18.10
2022-12-03T21:23:40.973Z,16.83
2022-12-03T21:28:39.811Z,17.48
2022-12-03T21:31:09.575Z,18.70
2022-12-03T21:33:37.015Z,18.52
2022-12-03T21:36:05.083Z,16.55
2022-12-03T21:38:32.724Z,17.48
2022-12-03T21:41:00.549Z,18.10
2022-12-03T21:43:27.824Z,17.88
2022-12-03T21:45:56.346Z,17.85
2022-12-03T21:48:23.368Z,18.45
2022-12-03T21:51:05.845Z,19.02
2022-12-03T21:53:35.197Z,17.60
2022-12-03T21:56:07.719Z,17.98
2022-12-03T21:58:34.933Z,16.90
2022-12-03T22:03:28.667Z,17.27
2022-12-03T22:05:55.504Z,17.50
2022-12-03T22:08:22.356Z,18.40
2022-12-03T22:10:49.283Z,17.92
2022-12-03T22:13:16.095Z,18.35
2022-12-03T22:15:42.927Z,17.63
2022-12-03T22:18:09.969Z,20.00
2022-12-03T22:20:37.144Z,19.70
2022-12-03T22:25:30.614Z,19.42
2022-12-03T22:27:57.393Z,17.05
2022-12-03T22:30:24.282Z,18.80
2022-12-03T22:32:51.048Z,19.08
2022-12-03T22:35:17.742Z,19.00
2022-12-03T22:37:44.596Z,17.55
2022-12-03T22:40:11.635Z,18.67
2022-12-03T22:42:38.475Z,18.45
2022-12-03T22:45:06.032Z,19.33
2022-12-03T22:47:33.173Z,17.85
2022-12-03T22:52:26.797Z,16.90
2022-12-03T22:54:54.292Z,17.30
2022-12-03T22:57:21.097Z,17.23
2022-12-03T22:59:48.005Z,18.35
2022-12-03T23:02:14.980Z,18.58
2022-12-03T23:04:41.949Z,17.35
2022-12-03T23:07:09.256Z,17.40
2022-12-03T23:09:36.489Z,16.65
2022-12-03T23:12:03.439Z,15.50
2022-12-03T23:14:31.570Z,17.08
2022-12-03T23:16:58.564Z,16.35
2022-12-03T23:19:25.441Z,16.08
2022-12-03T23:21:52.205Z,16.40
2022-12-03T23:24:19.784Z,16.58
2022-12-03T23:26:46.716Z,16.88
2022-12-03T23:29:13.540Z,18.00
2022-12-03T23:31:40.440Z,15.57
2022-12-03T23:36:35.036Z,15.27
2022-12-03T23:39:02.472Z,16.05
2022-12-03T23:41:29.362Z,16.02
2022-12-03T23:43:56.614Z,17.83
2022-12-03T23:46:25.698Z,15.88
2022-12-03T23:48:53.515Z,17.27
2022-12-03T23:51:24.768Z,16.02
2022-12-03T23:53:53.038Z,16.17
2022-12-03T23:56:23.389Z,15.57
2022-12-03T23:58:50.565Z,16.08
